createdAt,value
2018-04-11T00:03:31.444Z,16.87
2018-04-11T00:07:34.112Z,16.07
2018-04-11T00:11:36.792Z,17.90
2018-04-11T00:15:40.297Z,16.60
2018-04-11T00:19:43.748Z,17.27
2018-04-11T00:23:46.533Z,16.73
2018-04-11T00:27:49.191Z,17.10
2018-04-11T00:31:51.853Z,17.70
2018-04-11T00:35:54.639Z,16.40
2018-04-11T00:39:57.302Z,18.03
2018-04-11T00:43:59.965Z,15.87
2018-04-11T00:48:02.625Z,17.63
2018-04-11T00:52:05.289Z,18.30
2018-04-11T00:56:07.966Z,17.63
2018-04-11T01:00:10.635Z,16.83
2018-04-11T01:04:13.292Z,17.17
2018-04-11T01:08:16.768Z,17.60
2018-04-11T01:12:19.435Z,17.50
2018-04-11T01:16:22.365Z,18.30
2018-04-11T01:20:25.796Z,18.07
2018-04-11T01:24:29.221Z,17.80
2018-04-11T01:28:31.901Z,17.90
2018-04-11T01:32:34.597Z,19.23
2018-04-11T01:36:37.331Z,18.20
2018-04-11T01:40:40.798Z,17.27
2018-04-11T01:44:43.537Z,18.53
2018-04-11T01:48:46.195Z,18.17
2018-04-11T01:52:48.870Z,17.27
2018-04-11T01:56:51.553Z,17.13
2018-04-11T02:00:54.200Z,17.53
2018-04-11T02:04:56.874Z,18.00
2018-04-11T02:08:59.550Z,18.77
2018-04-11T02:13:02.251Z,17.23
2018-04-11T02:17:04.925Z,18.73
2018-04-11T02:21:07.583Z,17.73
2018-04-11T02:25:10.245Z,17.77
2018-04-11T02:29:13.680Z,17.20
2018-04-11T02:33:16.409Z,17.07
2018-04-11T02:37:19.064Z,16.90
2018-04-11T02:41:21.723Z,20.20
2018-04-11T02:45:24.394Z,17.43
2018-04-11T02:49:27.081Z,17.13
2018-04-11T02:53:29.755Z,18.23
2018-04-11T02:57:32.440Z,18.60
2018-04-11T03:01:35.121Z,19.53
2018-04-11T03:05:37.789Z,15.80
2018-04-11T03:09:40.516Z,17.17
2018-04-11T03:13:43.182Z,18.77
2018-04-11T03:17:45.846Z,17.27
2018-04-11T03:21:48.620Z,17.43
2018-04-11T03:25:52.040Z,17.73
2018-04-11T03:29:54.730Z,16.90
2018-04-11T03:33:57.400Z,18.67
2018-04-11T03:38:00.809Z,18.63
2018-04-11T03:42:04.297Z,18.30
2018-04-11T03:46:07.809Z,17.93
2018-04-11T03:50:10.516Z,17.77
2018-04-11T03:54:13.915Z,17.60
2018-04-11T03:58:17.380Z,16.80
2018-04-11T04:02:20.064Z,17.00
2018-04-11T04:06:22.740Z,17.10
2018-04-11T04:10:25.416Z,16.53
2018-04-11T04:14:39.893Z,18.50
2018-04-11T04:23:20.358Z,14.57
2018-04-11T04:27:23.787Z,16.80
2018-04-11T04:31:26.464Z,15.90
2018-04-11T04:35:29.867Z,15.87
2018-04-11T04:39:32.590Z,15.20
2018-04-11T04:43:35.286Z,14.80
2018-04-11T04:47:37.957Z,15.80
2018-04-11T04:51:40.658Z,15.77
2018-04-11T04:55:43.344Z,15.87
2018-04-11T04:59:46.058Z,15.30
2018-04-11T05:03:48.784Z,14.37
2018-04-11T05:07:52.216Z,14.17
2018-04-11T05:11:54.941Z,14.87
2018-04-11T05:15:57.602Z,15.07
2018-04-11T05:20:00.358Z,15.07
2018-04-11T05:24:03.785Z,14.33
2018-04-11T05:28:06.440Z,13.87
2018-04-11T05:32:09.108Z,13.17
2018-04-11T05:36:11.784Z,13.40
2018-04-11T05:40:14.453Z,13.63
2018-04-11T05:44:17.127Z,14.17
2018-04-11T05:48:20.564Z,13.77
2018-04-11T05:52:23.232Z,13.13
2018-04-11T05:56:25.897Z,13.47
2018-04-11T06:00:29.318Z,13.53
2018-04-11T06:04:31.977Z,14.60
2018-04-11T06:08:34.635Z,15.83
2018-04-11T06:12:37.301Z,14.43
2018-04-11T06:16:39.977Z,14.43
2018-04-11T06:20:42.646Z,15.30
2018-04-11T06:24:46.080Z,14.37
2018-04-11T06:28:48.740Z,16.30
2018-04-11T06:32:52.381Z,15.27
2018-04-11T06:36:55.053Z,15.70
2018-04-11T06:40:58.501Z,17.40
2018-04-11T06:45:01.231Z,17.37
2018-04-11T06:49:03.852Z,16.57
2018-04-11T06:53:06.540Z,16.50
2018-04-11T06:57:09.244Z,18.07
2018-04-11T07:01:11.897Z,17.27
2018-04-11T07:05:14.585Z,17.90
2018-04-11T07:09:17.963Z,17.30
2018-04-11T07:13:20.610Z,17.13
2018-04-11T07:17:23.260Z,18.10
2018-04-11T07:21:25.916Z,18.17
2018-04-11T07:25:28.570Z,17.90
2018-04-11T07:29:31.174Z,18.57
2018-04-11T07:33:33.828Z,18.07
2018-04-11T07:37:37.352Z,19.77
2018-04-11T07:41:40.003Z,20.63
2018-04-11T07:45:42.613Z,18.67
2018-04-11T07:49:45.319Z,19.60
2018-04-11T07:53:47.971Z,20.10
2018-04-11T07:57:50.635Z,22.47
2018-04-11T08:01:53.248Z,20.67
2018-04-11T08:05:55.925Z,22.10
2018-04-11T08:09:58.590Z,20.70
2018-04-11T08:14:01.355Z,17.50
2018-04-11T08:18:04.001Z,18.03
2018-04-11T08:22:06.665Z,19.53
2018-04-11T08:26:09.394Z,19.73
2018-04-11T08:30:12.816Z,19.27
2018-04-11T08:34:16.233Z,17.57
2018-04-11T08:38:18.852Z,18.27
2018-04-11T08:42:22.024Z,20.03
2018-04-11T08:46:31.538Z,19.30
2018-04-11T08:50:34.656Z,18.87
2018-04-11T08:54:38.082Z,18.73
2018-04-11T08:58:40.695Z,20.73
2018-04-11T09:02:43.343Z,20.50
2018-04-11T09:06:45.997Z,22.17
2018-04-11T09:10:48.656Z,19.97
2018-04-11T09:14:51.323Z,21.60
2018-04-11T09:18:53.981Z,23.27
2018-04-11T09:22:57.403Z,24.03
2018-04-11T09:27:00.816Z,26.30
2018-04-11T09:31:03.480Z,32.27
2018-04-11T09:35:06.089Z,27.27
2018-04-11T09:39:08.744Z,27.10
2018-04-11T09:43:11.406Z,51.85
2018-04-11T09:47:14.057Z,24.93
2018-04-11T09:51:16.699Z,24.87
2018-04-11T09:55:19.312Z,26.20
2018-04-11T09:59:22.732Z,35.50
2018-04-11T10:03:26.157Z,28.77
2018-04-11T10:07:28.901Z,40.93
2018-04-11T10:11:31.561Z,28.13
2018-04-11T10:15:34.168Z,27.13
2018-04-11T10:19:36.817Z,26.63
2018-04-11T10:23:39.471Z,26.63
2018-04-11T10:27:42.879Z,27.53
2018-04-11T10:31:46.272Z,26.50
2018-04-11T10:35:49.769Z,25.27
2018-04-11T10:39:52.416Z,28.10
2018-04-11T10:43:55.063Z,26.97
2018-04-11T10:47:58.477Z,25.50
2018-04-11T10:52:01.867Z,27.80
2018-04-11T10:56:04.521Z,27.20
2018-04-11T11:00:07.213Z,27.70
2018-04-11T11:04:09.870Z,30.97
2018-04-11T11:08:12.612Z,24.87
2018-04-11T11:12:15.220Z,32.30
2018-04-11T11:16:18.653Z,28.40
2018-04-11T11:20:21.369Z,24.90
2018-04-11T11:24:24.013Z,24.87
2018-04-11T11:28:27.439Z,25.53
2018-04-11T11:32:30.056Z,25.00
2018-04-11T11:36:32.739Z,26.03
2018-04-11T11:40:35.402Z,27.20
2018-04-11T11:44:38.106Z,26.00
2018-04-11T11:48:40.719Z,26.97
2018-04-11T11:52:43.371Z,29.37
2018-04-11T11:56:46.023Z,28.97
2018-04-11T12:00:48.704Z,27.17
2018-04-11T12:04:51.352Z,26.70
2018-04-11T12:08:53.995Z,27.27
2018-04-11T12:12:56.644Z,24.47
2018-04-11T12:16:59.294Z,24.20
2018-04-11T12:21:01.944Z,22.47
2018-04-11T12:25:04.644Z,25.23
2018-04-11T12:29:07.291Z,24.03
2018-04-11T12:33:09.939Z,24.40
2018-04-11T12:37:12.619Z,22.87
2018-04-11T12:41:16.040Z,23.10
2018-04-11T12:45:19.412Z,22.40
2018-04-11T12:49:22.061Z,25.07
2018-04-11T12:53:24.743Z,22.17
2018-04-11T12:57:27.452Z,21.00
2018-04-11T13:01:30.104Z,21.63
2018-04-11T13:05:32.711Z,20.57
2018-04-11T13:09:35.368Z,21.77
2018-04-11T13:13:38.783Z,23.03
2018-04-11T13:17:42.209Z,23.47
2018-04-11T13:21:44.916Z,24.07
2018-04-11T13:25:48.296Z,22.90
2018-04-11T13:29:50.944Z,23.30
2018-04-11T13:33:53.624Z,23.33
2018-04-11T13:37:56.625Z,24.87
2018-04-11T13:41:59.360Z,25.83
2018-04-11T13:46:02.048Z,24.47
2018-04-11T13:50:04.694Z,24.80
2018-04-11T13:54:07.345Z,25.87
2018-04-11T13:58:09.992Z,28.40
2018-04-11T14:02:12.592Z,28.30
2018-04-11T14:06:16.193Z,28.47
2018-04-11T14:10:19.621Z,32.20
2018-04-11T14:14:22.297Z,30.93
2018-04-11T14:18:24.963Z,29.77
2018-04-11T14:22:27.578Z,32.13
2018-04-11T14:26:30.229Z,32.17
2018-04-11T14:30:32.900Z,31.63
2018-04-11T14:34:36.358Z,29.73
2018-04-11T14:38:39.028Z,29.90
2018-04-11T14:42:42.407Z,29.53
2018-04-11T14:46:45.069Z,30.47
2018-04-11T14:50:47.793Z,30.70
2018-04-11T14:54:50.508Z,29.37
2018-04-11T14:58:53.948Z,28.90
2018-04-11T15:02:56.557Z,31.93
2018-04-11T15:06:59.208Z,31.07
2018-04-11T15:11:01.865Z,31.87
2018-04-11T15:15:04.527Z,31.70
2018-04-11T15:19:07.191Z,33.50
2018-04-11T15:23:09.858Z,34.73
2018-04-11T15:27:13.339Z,34.27
2018-04-11T15:31:15.991Z,31.87
2018-04-11T15:35:18.652Z,32.37
2018-04-11T15:39:21.260Z,32.07
2018-04-11T15:43:23.954Z,31.63
2018-04-11T15:47:26.579Z,31.63
2018-04-11T15:51:29.273Z,27.67
2018-04-11T15:55:31.931Z,26.73
2018-04-11T15:59:35.304Z,26.67
2018-04-11T16:03:37.964Z,26.47
2018-04-11T16:07:41.385Z,25.33
2018-04-11T16:11:44.803Z,26.50
2018-04-11T16:15:47.457Z,26.87
2018-04-11T16:19:50.060Z,26.40
2018-04-11T16:23:53.476Z,25.33
2018-04-11T16:27:56.128Z,26.30
2018-04-11T16:31:58.775Z,25.87
2018-04-11T16:36:01.376Z,25.20
2018-04-11T16:40:04.787Z,25.23
2018-04-11T16:44:07.438Z,24.27
2018-04-11T16:48:10.092Z,24.37
2018-04-11T16:52:12.784Z,24.93
2018-04-11T16:56:15.423Z,23.03
2018-04-11T17:00:18.076Z,24.50
2018-04-11T17:04:21.512Z,23.97
2018-04-11T17:08:24.162Z,24.13
2018-04-11T17:12:26.812Z,19.33
2018-04-11T17:16:29.416Z,19.10
2018-04-11T17:20:43.968Z,17.83
2018-04-11T17:24:58.332Z,17.63
2018-04-11T17:29:12.738Z,15.47
2018-04-11T17:33:16.151Z,14.20
2018-04-11T17:37:19.533Z,15.90
2018-04-11T17:41:22.185Z,15.53
2018-04-11T17:45:24.843Z,18.13
2018-04-11T17:49:28.265Z,18.27
2018-04-11T17:53:30.875Z,20.00
2018-04-11T17:57:33.524Z,20.63
2018-04-11T18:01:36.935Z,21.83
2018-04-11T18:05:39.593Z,21.80
2018-04-11T18:09:42.243Z,21.90
2018-04-11T18:13:44.843Z,22.93
2018-04-11T18:17:47.549Z,21.00
2018-04-11T18:21:50.200Z,22.80
2018-04-11T18:25:52.855Z,23.13
2018-04-11T18:29:56.332Z,23.93
2018-04-11T18:33:58.944Z,24.90
2018-04-11T18:38:02.372Z,24.20
2018-04-11T18:42:05.029Z,24.33
2018-04-11T18:46:07.678Z,27.23
2018-04-11T18:50:10.293Z,25.80
2018-04-11T18:54:12.947Z,25.80
2018-04-11T18:58:15.693Z,25.63
2018-04-11T19:02:19.174Z,23.13
2018-04-11T19:06:21.888Z,21.63
2018-04-11T19:10:25.270Z,21.97
2018-04-11T19:14:27.920Z,20.47
2018-04-11T19:18:30.597Z,22.23
2018-04-11T19:22:33.249Z,20.10
2018-04-11T19:26:36.746Z,19.90
2018-04-11T19:30:39.403Z,18.30
2018-04-11T19:34:42.091Z,21.20
2018-04-11T19:38:44.760Z,19.30
2018-04-11T19:42:47.425Z,20.77
2018-04-11T19:46:50.860Z,21.33
2018-04-11T19:50:53.480Z,18.50
2018-04-11T19:54:56.358Z,19.30
2018-04-11T19:58:59.022Z,20.33
2018-04-11T20:03:01.681Z,20.33
2018-04-11T20:07:04.314Z,19.33
2018-04-11T20:11:07.022Z,18.13
2018-04-11T20:15:09.677Z,18.57
2018-04-11T20:19:12.384Z,19.53
2018-04-11T20:23:15.818Z,20.53
2018-04-11T20:27:18.432Z,19.87
2018-04-11T20:31:21.867Z,19.67
2018-04-11T20:35:24.527Z,20.07
2018-04-11T20:39:27.185Z,21.20
2018-04-11T20:43:29.863Z,20.63
2018-04-11T20:47:32.500Z,19.83
2018-04-11T20:51:35.968Z,19.53
2018-04-11T20:55:38.727Z,20.47
2018-04-11T20:59:41.392Z,21.30
2018-04-11T21:03:44.834Z,21.20
2018-04-11T21:07:47.480Z,20.87
2018-04-11T21:11:50.917Z,21.60
2018-04-11T21:15:53.579Z,19.43
2018-04-11T21:19:56.236Z,22.60
2018-04-11T21:23:58.855Z,21.00
2018-04-11T21:28:02.297Z,22.27
2018-04-11T21:32:04.956Z,20.20
2018-04-11T21:36:08.392Z,21.67
2018-04-11T21:40:11.048Z,22.80
2018-04-11T21:44:13.669Z,23.23
2018-04-11T21:48:16.330Z,22.93
2018-04-11T21:52:19.756Z,25.80
2018-04-11T21:56:22.411Z,25.70
2018-04-11T22:00:25.061Z,27.30
2018-04-11T22:04:27.739Z,27.27
2018-04-11T22:08:30.397Z,28.67
2018-04-11T22:12:33.819Z,29.73
2018-04-11T22:16:36.499Z,31.17
2018-04-11T22:20:39.166Z,35.00
2018-04-11T22:24:41.808Z,33.67
2018-04-11T22:28:44.496Z,34.07
2018-04-11T22:32:47.168Z,33.73
2018-04-11T22:36:49.887Z,32.80
2018-04-11T22:40:53.305Z,34.17
2018-04-11T22:44:55.958Z,32.90
2018-04-11T22:48:58.620Z,33.43
2018-04-11T22:53:02.040Z,31.73
2018-04-11T22:57:04.695Z,33.17
2018-04-11T23:01:07.318Z,32.73
2018-04-11T23:05:09.982Z,34.73
2018-04-11T23:09:13.395Z,34.27
2018-04-11T23:13:16.055Z,32.70
2018-04-11T23:17:18.720Z,35.73
2018-04-11T23:21:21.332Z,35.10
2018-04-11T23:25:23.980Z,33.13
2018-04-11T23:29:26.681Z,36.10
2018-04-11T23:33:29.390Z,34.10
2018-04-11T23:37:32.060Z,35.37
2018-04-11T23:41:34.673Z,34.67
2018-04-11T23:45:37.331Z,35.70
2018-04-11T23:49:40.025Z,34.90
2018-04-11T23:53:42.736Z,34.97
2018-04-11T23:57:45.586Z,34.97
